Guenther Schulte — VRGK8 — position and weather

sailwx.info

Track history (hours):
 
Tides and Currents Weather Stations Pressure Air Temp Water Temp Dewpoint Dewpoint Depression Visibility Wind Speed Wind Dir Waves Ship Positions

Guenther Schulte

Last reported at 2014-Jul-26 01:30 UTC. Time now 2014-Jul-29 14:58 UTC.
Position S 35°60' E 175°44'.

Length 231 m; draft 10.1 m.

Type: Ship (hazmat cat C). MMSI: 477728800.

Date/timePositionNaut miles runAvg speedWind from/ knotsBaromVisibWave heightAir tempDewpointWater temp
2014-Jul-26 01:30S 35°60' E 175°44'  
2014-Jul-21 03:32S 37°15' E 150°14'1312.8
2014-Jul-21 02:33S 37°27' E 150°09'1313.4
2014-Jul-21 01:33S 37°40' E 150°04'1615.5
2014-Jul-21 00:33S 37°53' E 149°54'1616.0
2014-Jul-20 23:33S 38°02' E 149°38'11215.5
2014-Jul-20 16:19S 38°59' E 147°34'1215.5
2014-Jul-20 15:34S 39°03' E 147°20'1615.9
2014-Jul-20 14:34S 39°08' E 147°00'1616.3
2014-Jul-20 13:33S 39°14' E 146°41'1616.2
2014-Jul-20 12:33S 39°16' E 146°20'1615.5
2014-Jul-20 11:33S 39°12' E 146°00'1616.3
2014-Jul-20 10:33S 39°03' E 145°43'10 0.3
2014-Jul-18 19:27S 38°55' E 145°36'1213.1
2014-Jul-18 18:33S 39°00' E 145°49'1615.4
2014-Jul-18 17:31S 39°08' E 146°07'1515.1
2014-Jul-18 16:33S 39°10' E 146°26'1616.2
2014-Jul-18 15:33S 39°05' E 146°46'1616.4
2014-Jul-18 14:33S 38°60' E 147°06'1616.0
2014-Jul-18 13:33S 38°55' E 147°25'  
Track history (hours):
 
Tides and Currents Weather Stations Pressure Air Temp Water Temp Dewpoint Dewpoint Depression Visibility Wind Speed Wind Dir Waves Ship Positions

Guenther Schulte

Last reported at 2014-Jul-26 01:30 UTC. Time now 2014-Jul-29 14:58 UTC.
Position S 35°60' E 175°44'.

Length 231 m; draft 10.1 m.

Type: Ship (hazmat cat C). MMSI: 477728800.

Date/timePositionNaut miles runAvg speedWind from/ knotsBaromVisibWave heightAir tempDewpointWater temp
2014-Jul-26 01:30S 35°60' E 175°44'  
2014-Jul-21 03:32S 37°15' E 150°14'1312.8
2014-Jul-21 02:33S 37°27' E 150°09'1313.4
2014-Jul-21 01:33S 37°40' E 150°04'1615.5
2014-Jul-21 00:33S 37°53' E 149°54'1616.0
2014-Jul-20 23:33S 38°02' E 149°38'11215.5
2014-Jul-20 16:19S 38°59' E 147°34'1215.5
2014-Jul-20 15:34S 39°03' E 147°20'1615.9
2014-Jul-20 14:34S 39°08' E 147°00'1616.3
2014-Jul-20 13:33S 39°14' E 146°41'1616.2
2014-Jul-20 12:33S 39°16' E 146°20'1615.5
2014-Jul-20 11:33S 39°12' E 146°00'1616.3
2014-Jul-20 10:33S 39°03' E 145°43'10 0.3
2014-Jul-18 19:27S 38°55' E 145°36'1213.1
2014-Jul-18 18:33S 39°00' E 145°49'1615.4
2014-Jul-18 17:31S 39°08' E 146°07'1515.1
2014-Jul-18 16:33S 39°10' E 146°26'1616.2
2014-Jul-18 15:33S 39°05' E 146°46'1616.4
2014-Jul-18 14:33S 38°60' E 147°06'1616.0
2014-Jul-18 13:33S 38°55' E 147°25'  

Dump ship's entire track history